Terminal Aerodrome Forecast
Issued by NWS Cleveland, OH

Home | Current Version | Previous Version | Text Only | Print | Product List | Glossary On
Versions: 1 2 3 4 5 6 7 8 9 10 11 12 13 14 15 16 17 18 19 20 21 22
000
FTUS41 KCLE 281000 AAA
TAFCLE
TAF AMD
KCLE 281027Z 2810/2912 28010KT P6SM VCSH BKN008 OVC015
     FM281030 29010KT P6SM SCT008 OVC015
     FM281700 31010KT P6SM OVC022
     FM282100 31006KT P6SM BKN035
     FM290600 34005KT P6SM BKN030=

USA.gov is the U.S. government's official web portal to all federal, state and local government web resources and services.